Time;durP1;ratioP1;P1;durP2;ratioP2;P2;SDS_P1;SDS_P2;PMS_P1;PMS_P2;Temp;Humidity;BMP_temperature;BMP_pressure;BME280_temperature;BME280_humidity;BME280_pressure;Samples;Min_cycle;Max_cycle;Signal;HPM_P1;HPM_P2
2020/12/09 00:00:13;;;;;;;;;;;;;;;1.28;80.64;94094.53;4996706;28;20326;-74
2020/12/09 00:02:39;;;;;;;;;;;;;;;1.13;80.74;94090.16;4995767;28;20539;-73
2020/12/09 00:05:05;;;;;;;;;;;;;;;1.01;81.42;94103.53;5014240;28;20367;-73
2020/12/09 00:07:34;;;;;;;;;;;;;;;1.27;80.82;94098.16;4996476;28;19961;-75
2020/12/09 00:09:59;;;;;;;;;;;;;;;1.33;80.00;94106.78;5013767;28;19960;-73
2020/12/09 00:12:27;;;;;;;;;;;;;;;1.32;79.89;94107.84;5013513;28;19967;-73
2020/12/09 00:14:52;;;;;;;;;;;;;;;1.17;80.27;94104.25;5013935;28;19918;-73
2020/12/09 00:17:17;;;;;;;;;;;;;;;1.14;80.74;94112.66;4996113;28;20039;-75
2020/12/09 00:19:43;;;;;;;;;;;;;;;1.02;81.06;94112.97;4996068;28;19918;-73
2020/12/09 00:22:08;;;;;;;;;;;;;;;1.13;80.65;94107.69;4996100;28;19942;-73
2020/12/09 00:24:33;;;;;;;;;;;;;;;1.08;80.81;94105.88;4996376;28;20437;-74
2020/12/09 00:26:58;;;;;;;;;;;;;;;0.93;81.28;94103.34;5013734;28;20377;-75
2020/12/09 00:29:24;;;;;;;;;;;;;;;0.61;82.73;94095.84;5013326;28;19922;-75
2020/12/09 00:31:49;;;;;;;;;;;;;;;0.38;84.06;94086.75;5013122;28;19924;-74
2020/12/09 00:34:14;;;;;;;;;;;;;;;0.54;83.52;94087.50;4996014;28;19944;-74
2020/12/09 00:36:39;;;;;;;;;;;;;;;0.57;83.02;94097.44;4995900;28;19917;-73
2020/12/09 00:39:04;;;;;;;;;;;;;;;0.84;82.11;94107.56;5013218;28;20410;-73
2020/12/09 00:41:30;;;;;;;;;;;;;;;0.99;81.65;94113.50;4995308;28;19929;-73
2020/12/09 00:43:56;;;;;;;;;;;;;;;0.95;81.74;94119.53;5013400;28;20008;-73
2020/12/09 00:46:22;;;;;;;;;;;;;;;0.90;81.54;94125.59;4995696;28;20020;-75
2020/12/09 00:48:51;;;;;;;;;;;;;;;1.23;80.53;94136.47;4995400;28;19917;-74
2020/12/09 00:51:17;;;;;;;;;;;;;;;1.19;79.89;94138.81;4995396;28;19926;-73
2020/12/09 00:53:42;;;;;;;;;;;;;;;1.04;80.60;94144.91;5038161;23;19924;-71
2020/12/09 00:56:08;;;;;;;;;;;;;;;1.25;79.71;94144.81;5044990;28;19917;-71
2020/12/09 00:58:33;;;;;;;;;;;;;;;1.47;79.38;94147.84;5011669;28;20021;-73
2020/12/09 01:00:59;;;;;;;;;;;;;;;1.32;79.40;94149.75;5013162;28;20352;-72
2020/12/09 01:03:24;;;;;;;;;;;;;;;1.42;79.56;94154.94;5012438;28;19924;-73
2020/12/09 01:05:49;;;;;;;;;;;;;;;1.43;78.82;94152.03;5013112;28;19972;-72
2020/12/09 01:08:14;;;;;;;;;;;;;;;1.49;79.19;94151.00;4995189;28;20278;-73
2020/12/09 01:10:39;;;;;;;;;;;;;;;1.38;79.41;94162.56;5012993;28;20525;-73
2020/12/09 01:13:04;;;;;;;;;;;;;;;1.55;78.89;94164.84;5012629;28;20379;-70
2020/12/09 01:15:30;;;;;;;;;;;;;;;1.32;79.93;94171.50;5012739;28;19918;-72
2020/12/09 01:17:55;;;;;;;;;;;;;;;1.27;80.15;94163.66;5012666;28;19918;-72
2020/12/09 01:20:22;;;;;;;;;;;;;;;1.55;78.96;94170.09;4995032;28;20016;-72
2020/12/09 01:22:47;;;;;;;;;;;;;;;1.68;77.90;94166.06;5012571;28;20383;-72
2020/12/09 01:25:12;;;;;;;;;;;;;;;1.69;78.14;94160.56;5012701;28;20059;-70
2020/12/09 01:27:38;;;;;;;;;;;;;;;1.35;79.79;94164.94;5012546;28;19987;-72
2020/12/09 01:30:03;;;;;;;;;;;;;;;1.42;79.77;94158.34;5012390;28;19921;-72
2020/12/09 01:32:28;;;;;;;;;;;;;;;1.66;78.16;94155.84;5010641;28;20036;-72
2020/12/09 01:34:54;;;;;;;;;;;;;;;1.82;77.62;94162.56;5012588;28;20264;-72
2020/12/09 01:37:19;;;;;;;;;;;;;;;1.38;79.22;94165.16;5012562;28;20390;-72
2020/12/09 01:39:44;;;;;;;;;;;;;;;1.58;78.95;94159.03;5012219;28;19956;-69
2020/12/09 01:42:09;;;;;;;;;;;;;;;1.82;77.99;94175.69;5012182;28;19972;-72
2020/12/09 01:44:35;;;;;;;;;;;;;;;2.15;77.18;94172.56;5012436;28;19931;-72
2020/12/09 01:47:04;;;;;;;;;;;;;;;2.30;76.36;94181.13;5012362;28;19925;-72
2020/12/09 01:49:30;;;;;;;;;;;;;;;2.45;75.29;94180.19;5012139;28;19917;-71
2020/12/09 01:51:55;;;;;;;;;;;;;;;2.78;75.47;94198.81;5010846;28;19924;-73
2020/12/09 01:54:20;;;;;;;;;;;;;;;3.17;74.79;94208.38;4993776;28;20429;-71
2020/12/09 01:57:01;;;;;;;;;;;;;;;3.45;73.74;94212.00;5012283;28;19924;-72
2020/12/09 01:59:26;;;;;;;;;;;;;;;3.64;72.47;94228.59;5012008;28;19925;-73
2020/12/09 02:01:51;;;;;;;;;;;;;;;3.85;72.21;94223.84;5011693;28;20295;-72
2020/12/09 02:04:16;;;;;;;;;;;;;;;3.97;71.15;94220.78;5012031;28;19917;-72
2020/12/09 02:06:41;;;;;;;;;;;;;;;3.78;69.99;94223.41;4994540;28;19917;-72
2020/12/09 02:09:07;;;;;;;;;;;;;;;3.56;69.77;94227.38;5011952;28;19917;-71
2020/12/09 02:11:32;;;;;;;;;;;;;;;2.75;73.34;94218.50;4994353;28;19924;-73
2020/12/09 02:13:57;;;;;;;;;;;;;;;2.38;75.43;94213.84;5012149;28;19928;-72
2020/12/09 02:16:22;;;;;;;;;;;;;;;2.26;75.57;94216.81;5012090;28;19924;-72
2020/12/09 02:18:48;;;;;;;;;;;;;;;2.39;75.96;94212.78;5011930;28;19936;-71
2020/12/09 02:21:13;;;;;;;;;;;;;;;2.09;76.33;94219.03;5011881;28;20314;-72
2020/12/09 02:23:39;;;;;;;;;;;;;;;1.86;77.56;94212.63;5011979;28;19940;-72
2020/12/09 02:26:04;;;;;;;;;;;;;;;1.73;78.80;94207.97;4994384;28;20376;-72
2020/12/09 02:28:29;;;;;;;;;;;;;;;2.00;77.85;94210.97;5011634;28;19975;-72
2020/12/09 02:30:54;;;;;;;;;;;;;;;1.97;78.03;94203.63;4994420;28;20021;-72
2020/12/09 02:33:20;;;;;;;;;;;;;;;2.04;77.61;94208.56;5011442;28;20375;-72
2020/12/09 02:35:45;;;;;;;;;;;;;;;1.87;77.69;94214.19;5011971;28;19918;-72
2020/12/09 02:38:10;;;;;;;;;;;;;;;2.03;77.41;94207.78;5011834;28;19918;-72
2020/12/09 02:40:37;;;;;;;;;;;;;;;1.89;78.21;94206.06;5011612;28;19918;-72
2020/12/09 02:43:02;;;;;;;;;;;;;;;1.90;78.22;94212.88;4994060;28;20000;-72
2020/12/09 02:45:27;;;;;;;;;;;;;;;1.92;78.02;94218.63;5011872;28;19968;-72
2020/12/09 02:47:53;;;;;;;;;;;;;;;1.79;78.64;94223.44;5011721;28;19924;-72
2020/12/09 02:50:18;;;;;;;;;;;;;;;1.94;77.89;94219.91;4994243;28;19921;-71
2020/12/09 02:52:43;;;;;;;;;;;;;;;2.19;76.50;94218.97;5011378;28;19925;-72
2020/12/09 02:55:08;;;;;;;;;;;;;;;1.79;78.20;94222.63;4994134;28;19928;-72
2020/12/09 02:57:33;;;;;;;;;;;;;;;1.75;79.17;94221.63;4994125;28;20413;-72
2020/12/09 02:59:59;;;;;;;;;;;;;;;1.66;78.64;94218.00;4993925;28;20362;-73
2020/12/09 03:02:24;;;;;;;;;;;;;;;1.70;79.00;94224.28;5010953;28;20421;-72
2020/12/09 03:04:49;;;;;;;;;;;;;;;1.43;80.06;94220.19;5012564;28;19917;-74
2020/12/09 03:07:14;;;;;;;;;;;;;;;1.75;79.28;94213.75;4997498;28;20260;-72
2020/12/09 03:09:40;;;;;;;;;;;;;;;1.65;79.39;94213.81;5014859;28;20287;-72
2020/12/09 03:12:05;;;;;;;;;;;;;;;1.62;79.47;94214.34;5014888;28;19918;-71
2020/12/09 03:14:30;;;;;;;;;;;;;;;1.43;80.09;94209.69;5015099;28;19918;-72
2020/12/09 03:16:55;;;;;;;;;;;;;;;1.50;80.10;94202.34;5014951;28;20256;-71
2020/12/09 03:19:20;;;;;;;;;;;;;;;1.49;80.58;94213.09;4997220;28;19944;-71
2020/12/09 03:21:46;;;;;;;;;;;;;;;1.37;80.89;94200.28;4996996;28;19924;-70
2020/12/09 03:24:11;;;;;;;;;;;;;;;1.63;80.31;94197.56;4997275;28;19918;-71
2020/12/09 03:26:36;;;;;;;;;;;;;;;1.47;80.61;94192.38;5014757;28;19918;-71
2020/12/09 03:29:02;;;;;;;;;;;;;;;1.45;80.22;94184.03;5014460;28;19917;-71
2020/12/09 03:31:27;;;;;;;;;;;;;;;1.27;81.30;94184.63;4996779;28;19923;-71
2020/12/09 03:33:52;;;;;;;;;;;;;;;1.27;81.63;94184.63;5014465;28;19926;-71
2020/12/09 03:36:17;;;;;;;;;;;;;;;1.32;81.66;94184.59;4997087;28;20286;-71
2020/12/09 03:38:42;;;;;;;;;;;;;;;1.50;80.69;94186.63;4996784;28;19992;-71
2020/12/09 03:41:08;;;;;;;;;;;;;;;1.72;80.20;94190.69;5014470;28;19961;-71
2020/12/09 03:43:33;;;;;;;;;;;;;;;1.63;80.34;94193.09;5014398;28;20351;-72
2020/12/09 03:45:58;;;;;;;;;;;;;;;2.01;78.77;94194.19;5014430;28;19918;-71
2020/12/09 03:48:23;;;;;;;;;;;;;;;1.52;80.21;94202.06;5014230;28;19918;-72
2020/12/09 03:50:49;;;;;;;;;;;;;;;1.38;81.24;94203.69;5014394;28;19924;-71
2020/12/09 03:53:14;;;;;;;;;;;;;;;1.72;80.31;94206.41;5013792;28;19921;-71
2020/12/09 03:55:39;;;;;;;;;;;;;;;1.79;80.03;94199.03;5013445;28;19924;-71
2020/12/09 03:58:05;;;;;;;;;;;;;;;1.66;80.21;94210.91;5013652;28;19940;-71
2020/12/09 04:00:30;;;;;;;;;;;;;;;1.71;79.79;94216.13;5014052;28;19924;-71
2020/12/09 04:02:56;;;;;;;;;;;;;;;1.73;79.89;94214.00;4995908;28;20264;-71
2020/12/09 04:05:21;;;;;;;;;;;;;;;1.76;79.93;94212.69;5014069;28;19917;-72
2020/12/09 04:07:47;;;;;;;;;;;;;;;1.66;80.30;94212.75;4996417;28;19972;-72
2020/12/09 04:10:12;;;;;;;;;;;;;;;1.75;79.87;94216.38;5013879;28;20001;-72
2020/12/09 04:12:37;;;;;;;;;;;;;;;1.32;81.56;94210.00;5013774;28;19926;-71
2020/12/09 04:15:02;;;;;;;;;;;;;;;1.38;81.59;94201.84;5013842;28;19921;-71
2020/12/09 04:17:28;;;;;;;;;;;;;;;1.43;82.01;94204.44;5012995;28;19973;-72
2020/12/09 04:19:53;;;;;;;;;;;;;;;1.63;81.08;94208.03;4996263;28;20294;-72
2020/12/09 04:22:19;;;;;;;;;;;;;;;1.54;81.11;94199.97;5013747;28;20558;-72
2020/12/09 04:24:44;;;;;;;;;;;;;;;1.73;79.89;94198.28;4995587;28;19918;-72
2020/12/09 04:27:10;;;;;;;;;;;;;;;1.81;80.16;94204.81;5013458;28;20393;-72
2020/12/09 04:29:35;;;;;;;;;;;;;;;2.03;79.13;94212.25;5013264;28;19921;-72
2020/12/09 04:32:00;;;;;;;;;;;;;;;2.51;77.30;94221.09;5012831;28;20287;-72
2020/12/09 04:34:27;;;;;;;;;;;;;;;2.78;75.97;94222.44;5012727;28;21775;-71
2020/12/09 04:36:53;;;;;;;;;;;;;;;2.25;77.62;94236.25;4995770;28;19917;-70
2020/12/09 04:39:19;;;;;;;;;;;;;;;2.49;76.87;94246.81;5013172;28;19925;-73
2020/12/09 04:41:45;;;;;;;;;;;;;;;2.80;75.90;94251.81;5013100;28;19983;-70
2020/12/09 04:44:10;;;;;;;;;;;;;;;2.33;76.95;94253.25;5013383;28;20283;-70
2020/12/09 04:46:40;;;;;;;;;;;;;;;2.26;77.59;94252.78;5013337;28;20012;-72
2020/12/09 04:49:07;;;;;;;;;;;;;;;2.68;76.20;94265.31;5013001;28;19979;-70
2020/12/09 04:51:48;;;;;;;;;;;;;;;2.91;76.00;94261.16;5012995;28;19948;-70
2020/12/09 04:54:15;;;;;;;;;;;;;;;3.03;74.79;94255.56;5013225;28;19922;-70
2020/12/09 04:56:52;;;;;;;;;;;;;;;2.76;75.58;94262.09;5013105;28;19918;-71
2020/12/09 04:59:22;;;;;;;;;;;;;;;1.91;77.02;94230.97;5012927;28;19925;-71
2020/12/09 05:02:07;;;;;;;;;;;;;;;2.64;76.40;94281.91;4994849;28;19917;-71
2020/12/09 05:04:33;;;;;;;;;;;;;;;2.58;76.23;94286.41;5013036;28;19917;-71
2020/12/09 05:07:06;;;;;;;;;;;;;;;2.53;77.18;94284.59;5012895;28;19975;-71
2020/12/09 05:09:35;;;;;;;;;;;;;;;2.30;76.91;94285.28;4994951;28;19918;-71
2020/12/09 05:12:03;;;;;;;;;;;;;;;2.16;77.83;94294.81;5012602;28;19940;-71
2020/12/09 05:14:29;;;;;;;;;;;;;;;2.32;77.01;94301.53;5011881;28;20373;-71
2020/12/09 05:16:58;;;;;;;;;;;;;;;2.25;77.61;94299.22;5012853;28;19960;-70
2020/12/09 05:19:24;;;;;;;;;;;;;;;1.77;79.32;94301.56;5012630;28;20413;-71
2020/12/09 05:21:50;;;;;;;;;;;;;;;2.02;78.75;94294.63;5012456;28;19956;-70
2020/12/09 05:24:18;;;;;;;;;;;;;;;2.13;78.96;94293.50;5012677;28;19963;-71
2020/12/09 05:26:43;;;;;;;;;;;;;;;1.98;79.19;94304.88;5013054;28;19940;-73
2020/12/09 05:29:16;;;;;;;;;;;;;;;2.18;78.14;94300.56;5012468;28;19918;-77
2020/12/09 05:31:44;;;;;;;;;;;;;;;2.33;78.07;94306.50;5010844;28;19925;-74
2020/12/09 05:34:21;;;;;;;;;;;;;;;2.13;78.24;94305.84;4995173;28;19979;-76
2020/12/09 05:36:47;;;;;;;;;;;;;;;2.06;79.04;94311.41;4995166;28;19922;-75
2020/12/09 05:39:12;;;;;;;;;;;;;;;2.26;77.98;94311.28;4994835;28;19972;-78
2020/12/09 05:41:38;;;;;;;;;;;;;;;2.44;77.71;94312.47;4995127;28;19918;-77
2020/12/09 05:44:03;;;;;;;;;;;;;;;2.31;77.97;94318.34;4995155;28;19924;-71
2020/12/09 05:46:28;;;;;;;;;;;;;;;2.39;77.28;94309.88;5020901;28;19917;-73
2020/12/09 05:48:54;;;;;;;;;;;;;;;2.22;77.76;94309.47;5031833;28;20008;-74
2020/12/09 05:51:19;;;;;;;;;;;;;;;2.24;78.10;94309.97;5014308;28;20028;-74
2020/12/09 05:53:46;;;;;;;;;;;;;;;2.08;78.45;94310.06;5031820;28;19923;-71
2020/12/09 05:56:22;;;;;;;;;;;;;;;2.14;79.00;94313.44;5014291;28;19918;-73
2020/12/09 05:58:47;;;;;;;;;;;;;;;2.00;78.88;94308.03;5031752;28;19913;-72
2020/12/09 06:01:14;;;;;;;;;;;;;;;1.91;80.28;94306.22;5031689;28;19918;-73
2020/12/09 06:03:41;;;;;;;;;;;;;;;2.20;78.67;94303.69;5031571;28;19920;-74
2020/12/09 06:06:15;;;;;;;;;;;;;;;2.33;77.63;94309.13;5031920;28;20382;-74
2020/12/09 06:08:42;;;;;;;;;;;;;;;2.07;79.00;94311.13;5013857;28;19952;-73
2020/12/09 06:11:07;;;;;;;;;;;;;;;2.03;78.61;94309.31;5031883;28;19963;-73
2020/12/09 06:13:33;;;;;;;;;;;;;;;2.18;79.27;94306.59;5031793;28;19917;-74
2020/12/09 06:15:59;;;;;;;;;;;;;;;2.14;79.14;94310.81;5013840;28;19921;-75
2020/12/09 06:18:26;;;;;;;;;;;;;;;2.16;79.29;94307.94;5013638;28;19917;-75
2020/12/09 06:20:52;;;;;;;;;;;;;;;2.21;79.33;94313.16;5013892;28;20008;-71
2020/12/09 06:23:18;;;;;;;;;;;;;;;2.27;79.42;94306.81;5031587;28;20005;-74
2020/12/09 06:25:44;;;;;;;;;;;;;;;2.15;79.83;94316.84;5014027;28;20306;-73
2020/12/09 06:28:13;;;;;;;;;;;;;;;1.77;81.54;94313.88;5031626;28;19917;-72
2020/12/09 06:30:39;;;;;;;;;;;;;;;1.71;81.78;94310.50;5031646;28;19947;-71
2020/12/09 06:33:04;;;;;;;;;;;;;;;1.54;81.96;94305.59;5030867;28;20004;-74
2020/12/09 06:35:30;;;;;;;;;;;;;;;1.56;82.58;94308.72;5031562;28;20297;-74
2020/12/09 06:38:07;;;;;;;;;;;;;;;1.26;83.48;94306.97;5014216;28;19917;-72
2020/12/09 06:40:32;;;;;;;;;;;;;;;1.47;83.56;94305.06;5033262;28;20309;-75
2020/12/09 06:43:18;;;;;;;;;;;;;;;1.28;84.72;94304.09;5017379;28;19921;-73
2020/12/09 06:45:44;;;;;;;;;;;;;;;1.24;84.86;94301.22;5016642;28;19918;-74
2020/12/09 06:48:09;;;;;;;;;;;;;;;1.25;85.33;94302.00;5035058;28;19917;-71
2020/12/09 06:50:34;;;;;;;;;;;;;;;1.43;84.77;94306.66;5017144;28;19917;-73
2020/12/09 06:53:16;;;;;;;;;;;;;;;1.36;85.53;94308.00;5034912;28;19917;-74
2020/12/09 06:55:42;;;;;;;;;;;;;;;1.27;85.56;94310.38;5035203;28;19975;-71
2020/12/09 06:58:26;;;;;;;;;;;;;;;1.63;85.00;94318.13;5035015;28;19917;-73
2020/12/09 07:00:57;;;;;;;;;;;;;;;1.65;84.35;94322.06;5034765;28;19917;-74
2020/12/09 07:03:26;;;;;;;;;;;;;;;1.90;83.34;94323.03;5016538;28;20294;-72
2020/12/09 07:05:52;;;;;;;;;;;;;;;1.93;83.09;94322.47;5035238;28;20012;-72
2020/12/09 07:08:17;;;;;;;;;;;;;;;1.81;83.01;94322.78;5034553;28;20108;-71
2020/12/09 07:10:42;;;;;;;;;;;;;;;1.63;84.37;94323.38;5017113;28;19921;-71
2020/12/09 07:13:08;;;;;;;;;;;;;;;1.73;83.74;94323.34;5034418;28;20464;-72
2020/12/09 07:15:35;;;;;;;;;;;;;;;1.83;83.71;94331.94;5034752;28;19925;-71
2020/12/09 07:18:00;;;;;;;;;;;;;;;2.24;83.22;94344.88;5034743;28;19917;-72
2020/12/09 07:20:25;;;;;;;;;;;;;;;2.17;82.10;94341.78;5034351;28;19929;-73
2020/12/09 07:22:51;;;;;;;;;;;;;;;2.47;82.55;94353.94;5016636;28;19921;-72
2020/12/09 07:25:16;;;;;;;;;;;;;;;2.40;81.81;94353.44;5034371;28;19917;-73
2020/12/09 07:27:42;;;;;;;;;;;;;;;2.33;82.13;94356.38;5034518;28;19967;-73
2020/12/09 07:30:08;;;;;;;;;;;;;;;2.56;82.03;94362.81;5034114;28;19924;-72
2020/12/09 07:32:34;;;;;;;;;;;;;;;2.37;81.55;94364.50;5015890;28;20374;-72
2020/12/09 07:35:01;;;;;;;;;;;;;;;2.84;81.70;94358.69;5034260;28;20055;-75
2020/12/09 07:37:27;;;;;;;;;;;;;;;3.03;81.03;94361.44;5034418;28;20282;-72
2020/12/09 07:39:54;;;;;;;;;;;;;;;2.59;81.14;94358.84;5034116;28;20380;-72
2020/12/09 07:42:21;;;;;;;;;;;;;;;2.39;82.25;94364.22;5033898;28;19921;-74
2020/12/09 07:44:46;;;;;;;;;;;;;;;2.38;81.79;94354.78;5016445;28;20293;-71
2020/12/09 07:47:12;;;;;;;;;;;;;;;2.44;82.13;94359.72;5034089;28;20011;-71
2020/12/09 07:49:47;;;;;;;;;;;;;;;2.33;82.37;94363.47;5033799;28;19917;-72
2020/12/09 07:52:20;;;;;;;;;;;;;;;1.80;84.05;94357.94;5032439;28;19918;-75
2020/12/09 07:54:45;;;;;;;;;;;;;;;1.41;86.19;94361.16;5015957;28;20004;-71
2020/12/09 07:57:10;;;;;;;;;;;;;;;1.27;87.39;94360.91;5033848;28;19952;-71
2020/12/09 07:59:35;;;;;;;;;;;;;;;1.38;87.05;94361.69;5033567;28;20396;-71
2020/12/09 08:02:21;;;;;;;;;;;;;;;1.59;87.38;94365.06;5033281;28;19928;-70
2020/12/09 08:04:47;;;;;;;;;;;;;;;1.48;87.44;94366.13;5033013;28;19967;-70
2020/12/09 08:07:13;;;;;;;;;;;;;;;2.10;86.09;94367.53;5015780;28;19917;-72
2020/12/09 08:09:38;;;;;;;;;;;;;;;2.00;84.47;94367.56;5033359;28;19921;-72
2020/12/09 08:12:03;;;;;;;;;;;;;;;1.82;84.98;94363.69;5015926;28;19962;-71
2020/12/09 08:14:32;;;;;;;;;;;;;;;1.96;84.99;94372.56;5033718;28;19925;-72
2020/12/09 08:16:57;;;;;;;;;;;;;;;2.14;84.13;94375.63;5033569;28;19947;-73
2020/12/09 08:19:25;;;;;;;;;;;;;;;2.20;85.50;94379.78;5015614;28;20020;-73
2020/12/09 08:22:06;;;;;;;;;;;;;;;2.15;84.71;94385.06;5033265;28;19918;-72
2020/12/09 08:24:31;;;;;;;;;;;;;;;2.36;82.85;94376.06;5015840;28;20282;-71
2020/12/09 08:26:56;;;;;;;;;;;;;;;2.13;83.90;94385.34;5033547;28;19924;-71
2020/12/09 08:29:22;;;;;;;;;;;;;;;2.32;83.60;94381.06;5033192;28;19924;-73
2020/12/09 08:32:00;;;;;;;;;;;;;;;2.01;83.91;94390.13;5032953;28;19917;-74
2020/12/09 08:34:25;;;;;;;;;;;;;;;2.13;83.82;94384.56;5033260;28;19913;-72
2020/12/09 08:36:50;;;;;;;;;;;;;;;2.23;84.41;94385.28;5015490;28;19923;-73
2020/12/09 08:39:15;;;;;;;;;;;;;;;1.82;85.38;94384.66;5033039;28;19913;-72
2020/12/09 08:41:40;;;;;;;;;;;;;;;1.59;86.33;94385.22;5033105;28;20492;-71
2020/12/09 08:44:06;;;;;;;;;;;;;;;1.64;86.56;94396.53;5033184;28;19936;-73
2020/12/09 08:46:32;;;;;;;;;;;;;;;1.43;87.64;94395.75;5015293;28;19921;-73
2020/12/09 08:48:58;;;;;;;;;;;;;;;1.38;87.63;94387.88;5032982;28;19917;-72
2020/12/09 08:51:24;;;;;;;;;;;;;;;1.58;87.50;94396.78;5015101;28;20366;-73
2020/12/09 08:53:49;;;;;;;;;;;;;;;1.46;87.68;94397.84;5032980;28;20521;-72
2020/12/09 08:56:14;;;;;;;;;;;;;;;1.74;86.44;94408.78;5032933;28;20400;-72
2020/12/09 08:58:40;;;;;;;;;;;;;;;2.10;85.71;94406.88;5032651;28;19995;-73
2020/12/09 09:01:05;;;;;;;;;;;;;;;1.92;85.76;94394.34;5032755;28;19921;-72
2020/12/09 09:03:33;;;;;;;;;;;;;;;1.53;87.11;94402.81;5031524;28;19921;-72
2020/12/09 09:05:59;;;;;;;;;;;;;;;1.90;85.89;94407.72;5015104;28;20388;-73
2020/12/09 09:08:24;;;;;;;;;;;;;;;1.83;85.96;94405.38;5014776;28;19921;-72
2020/12/09 09:10:49;;;;;;;;;;;;;;;1.96;85.61;94403.25;5032221;28;20023;-72
2020/12/09 09:13:15;;;;;;;;;;;;;;;1.65;86.90;94405.16;5032872;28;19917;-68
2020/12/09 09:15:40;;;;;;;;;;;;;;;1.91;85.58;94403.25;5039205;28;19917;-76
2020/12/09 09:18:06;;;;;;;;;;;;;;;1.86;86.15;94409.31;5017442;28;19917;-74
2020/12/09 09:20:32;;;;;;;;;;;;;;;2.02;85.86;94418.69;5032387;28;19970;-67
2020/12/09 09:22:58;;;;;;;;;;;;;;;2.44;85.02;94422.72;5032450;28;19917;-73
2020/12/09 09:25:24;;;;;;;;;;;;;;;2.57;84.55;94430.00;5033540;28;19960;-72
2020/12/09 09:27:50;;;;;;;;;;;;;;;2.95;84.31;94435.56;5015135;28;19956;-68
2020/12/09 09:30:16;;;;;;;;;;;;;;;2.76;82.03;94421.50;5014323;28;20020;-69
2020/12/09 09:32:41;;;;;;;;;;;;;;;3.08;82.78;94419.19;5031462;28;20370;-70
2020/12/09 09:35:06;;;;;;;;;;;;;;;2.68;81.98;94422.09;5032051;28;19924;-67
2020/12/09 09:37:32;;;;;;;;;;;;;;;2.40;83.46;94419.06;5032159;28;19920;-68
2020/12/09 09:39:57;;;;;;;;;;;;;;;2.38;83.25;94421.19;5032003;28;19917;-72
2020/12/09 09:42:23;;;;;;;;;;;;;;;2.19;83.56;94423.59;5032008;28;19921;-70
2020/12/09 09:44:49;;;;;;;;;;;;;;;2.33;84.04;94410.69;5032140;28;19921;-69
2020/12/09 09:47:14;;;;;;;;;;;;;;;2.40;83.58;94407.78;5031975;28;19917;-68
2020/12/09 09:49:40;;;;;;;;;;;;;;;2.56;83.25;94407.44;5031559;28;20020;-68
2020/12/09 09:52:06;;;;;;;;;;;;;;;1.87;84.92;94403.00;5031786;28;20394;-68
2020/12/09 09:54:31;;;;;;;;;;;;;;;2.02;86.82;94402.16;5031853;28;20371;-68
2020/12/09 09:56:56;;;;;;;;;;;;;;;2.17;85.20;94393.47;5032017;28;19971;-69
2020/12/09 09:59:21;;;;;;;;;;;;;;;2.67;84.19;94394.25;5031848;28;19939;-68
2020/12/09 10:01:47;;;;;;;;;;;;;;;2.64;83.81;94400.81;5031289;28;19999;-68
2020/12/09 10:04:12;;;;;;;;;;;;;;;3.03;82.62;94402.69;5014057;28;19917;-69
2020/12/09 10:06:38;;;;;;;;;;;;;;;2.48;82.99;94394.88;5014465;28;20280;-68
2020/12/09 10:09:04;;;;;;;;;;;;;;;2.66;83.07;94400.53;5031507;28;20351;-69
2020/12/09 10:11:30;;;;;;;;;;;;;;;2.96;83.20;94412.69;5014089;28;19921;-70
2020/12/09 10:13:56;;;;;;;;;;;;;;;3.23;82.34;94407.78;5031843;28;19975;-69
2020/12/09 10:16:28;;;;;;;;;;;;;;;3.22;80.02;94400.16;5035233;28;19917;-69
2020/12/09 10:18:54;;;;;;;;;;;;;;;3.10;82.15;94403.94;5035643;28;19917;-69
2020/12/09 10:21:26;;;;;;;;;;;;;;;3.30;81.41;94412.72;5017986;28;19928;-70
2020/12/09 10:23:52;;;;;;;;;;;;;;;3.10;79.13;94413.66;5035506;28;19917;-69
2020/12/09 10:26:17;;;;;;;;;;;;;;;2.81;80.30;94400.44;5035614;28;20000;-70
2020/12/09 10:28:43;;;;;;;;;;;;;;;2.87;80.52;94404.63;5017747;28;19917;-69
2020/12/09 10:31:08;;;;;;;;;;;;;;;2.59;81.75;94391.13;5035558;28;20406;-70
2020/12/09 10:33:33;;;;;;;;;;;;;;;2.18;82.56;94387.16;5017302;28;19917;-69
2020/12/09 10:35:59;;;;;;;;;;;;;;;2.11;83.93;94382.22;5017600;28;19921;-72
2020/12/09 10:38:24;;;;;;;;;;;;;;;2.54;83.26;94385.91;5017587;28;19917;-71
2020/12/09 10:40:49;;;;;;;;;;;;;;;2.59;83.05;94379.84;5017864;28;19917;-70
2020/12/09 10:43:14;;;;;;;;;;;;;;;2.76;81.28;94379.47;5035238;28;20284;-69
2020/12/09 10:45:39;;;;;;;;;;;;;;;2.41;81.76;94373.41;5035162;28;20350;-68
2020/12/09 10:48:05;;;;;;;;;;;;;;;2.39;81.42;94378.13;5035166;28;20383;-71
2020/12/09 10:50:30;;;;;;;;;;;;;;;2.49;82.80;94369.41;5017092;28;19924;-70
2020/12/09 10:52:55;;;;;;;;;;;;;;;2.93;81.54;94376.50;5017070;28;19924;-70
2020/12/09 10:55:23;;;;;;;;;;;;;;;2.62;80.54;94387.19;5035055;28;19921;-70
2020/12/09 10:57:48;;;;;;;;;;;;;;;2.62;81.46;94381.16;5017477;28;19917;-68
2020/12/09 11:00:13;;;;;;;;;;;;;;;2.71;81.08;94380.28;5016816;28;20414;-69
2020/12/09 11:02:38;;;;;;;;;;;;;;;2.64;82.25;94373.78;5016431;28;20363;-70
2020/12/09 11:05:04;;;;;;;;;;;;;;;2.88;80.94;94387.03;5017081;28;19916;-69
2020/12/09 11:07:29;;;;;;;;;;;;;;;2.21;82.46;94370.88;5034947;28;19917;-69
2020/12/09 11:09:54;;;;;;;;;;;;;;;2.53;82.31;94368.59;5016818;28;20224;-70
2020/12/09 11:12:20;;;;;;;;;;;;;;;2.52;82.54;94374.13;5034540;28;19917;-69
2020/12/09 11:14:45;;;;;;;;;;;;;;;2.36;82.58;94362.94;5034755;28;19917;-69
2020/12/09 11:17:10;;;;;;;;;;;;;;;2.73;81.27;94370.31;5016889;28;19956;-70
2020/12/09 11:19:35;;;;;;;;;;;;;;;2.55;82.44;94363.84;5017099;28;19921;-69
2020/12/09 11:22:01;;;;;;;;;;;;;;;2.49;81.48;94367.56;5034608;28;19917;-70
2020/12/09 11:24:26;;;;;;;;;;;;;;;1.81;83.61;94362.91;5034556;28;20012;-70
2020/12/09 11:26:52;;;;;;;;;;;;;;;2.06;83.45;94362.03;5034189;28;19917;-72
2020/12/09 11:29:17;;;;;;;;;;;;;;;2.45;82.88;94363.13;5016587;28;19925;-71
2020/12/09 11:31:42;;;;;;;;;;;;;;;2.38;83.28;94363.44;5016276;28;20329;-70
2020/12/09 11:34:07;;;;;;;;;;;;;;;2.35;82.75;94358.72;5034361;28;20375;-71
2020/12/09 11:36:33;;;;;;;;;;;;;;;2.03;84.28;94357.31;5016657;28;19967;-71
2020/12/09 11:38:58;;;;;;;;;;;;;;;1.69;85.31;94365.06;5034177;28;20401;-72
2020/12/09 11:41:24;;;;;;;;;;;;;;;2.01;84.88;94367.28;5016535;28;19917;-70
2020/12/09 11:43:49;;;;;;;;;;;;;;;2.17;83.49;94361.97;5034295;28;19992;-70
2020/12/09 11:46:15;;;;;;;;;;;;;;;2.36;83.36;94370.03;5034190;28;19984;-72
2020/12/09 11:48:40;;;;;;;;;;;;;;;1.96;84.68;94372.56;5033852;28;20058;-71
2020/12/09 11:51:05;;;;;;;;;;;;;;;2.38;82.95;94375.78;5034161;28;19925;-70
2020/12/09 11:53:31;;;;;;;;;;;;;;;2.19;83.69;94371.13;5016139;28;19935;-71
2020/12/09 11:55:57;;;;;;;;;;;;;;;2.44;82.88;94372.84;5034125;28;19925;-72
2020/12/09 11:58:22;;;;;;;;;;;;;;;2.33;82.48;94371.34;5015903;28;19917;-72
2020/12/09 12:00:47;;;;;;;;;;;;;;;2.26;82.62;94373.47;5016232;28;20046;-71
2020/12/09 12:03:12;;;;;;;;;;;;;;;1.92;84.56;94368.91;5033331;28;19917;-72
2020/12/09 12:05:40;;;;;;;;;;;;;;;2.14;84.47;94371.16;5033825;28;20016;-71
2020/12/09 12:08:06;;;;;;;;;;;;;;;2.08;83.66;94375.66;5033783;28;19917;-72
2020/12/09 12:10:32;;;;;;;;;;;;;;;2.19;83.73;94365.88;5033608;28;20008;-70
2020/12/09 12:12:57;;;;;;;;;;;;;;;2.20;84.71;94367.47;5015578;28;20024;-70
2020/12/09 12:15:22;;;;;;;;;;;;;;;2.46;83.16;94360.25;5032370;28;19917;-71
2020/12/09 12:17:48;;;;;;;;;;;;;;;1.99;83.72;94363.34;5033780;28;20443;-71
2020/12/09 12:20:13;;;;;;;;;;;;;;;2.38;84.19;94363.44;5015601;28;19924;-70
2020/12/09 12:22:38;;;;;;;;;;;;;;;2.48;84.18;94373.88;5033322;28;19921;-71
2020/12/09 12:25:03;;;;;;;;;;;;;;;2.27;84.18;94367.19;5015795;28;19924;-71
2020/12/09 12:27:29;;;;;;;;;;;;;;;2.37;82.67;94371.59;5015791;28;19964;-72
2020/12/09 12:29:54;;;;;;;;;;;;;;;2.48;82.41;94368.63;5015253;28;20319;-71
2020/12/09 12:32:19;;;;;;;;;;;;;;;2.29;83.16;94367.69;5014930;28;20371;-72
2020/12/09 12:34:44;;;;;;;;;;;;;;;2.18;83.48;94360.91;5033020;28;20374;-72
2020/12/09 12:37:10;;;;;;;;;;;;;;;2.45;83.38;94361.28;5032519;28;19918;-71
2020/12/09 12:39:35;;;;;;;;;;;;;;;2.13;84.18;94360.94;5015080;28;19917;-70
2020/12/09 12:42:00;;;;;;;;;;;;;;;2.07;84.35;94362.81;5032988;28;19921;-72
2020/12/09 12:44:26;;;;;;;;;;;;;;;2.44;84.47;94359.72;5032906;28;19964;-72
2020/12/09 12:46:51;;;;;;;;;;;;;;;2.07;85.35;94365.44;5032812;28;19913;-73
2020/12/09 12:49:17;;;;;;;;;;;;;;;1.88;85.38;94365.22;5032537;28;20000;-71
2020/12/09 12:51:42;;;;;;;;;;;;;;;1.96;85.52;94367.31;5015060;28;19923;-72